createdAt,value
2023-02-28T00:01:26.524Z,7.43
2023-02-28T00:04:28.858Z,6.55
2023-02-28T00:07:36.222Z,6.85
2023-02-28T00:10:38.161Z,7.07
2023-02-28T00:13:42.674Z,7.40
2023-02-28T00:16:44.507Z,6.43
2023-02-28T00:19:46.456Z,7.18
2023-02-28T00:22:52.252Z,6.78
2023-02-28T00:25:54.883Z,7.20
2023-02-28T00:28:56.767Z,7.53
2023-02-28T00:31:59.644Z,8.23
2023-02-28T00:35:02.494Z,7.30
2023-02-28T00:38:08.662Z,7.57
2023-02-28T00:41:10.718Z,7.93
2023-02-28T00:44:12.597Z,8.18
2023-02-28T00:47:16.610Z,8.20
2023-02-28T00:50:18.781Z,8.95
2023-02-28T00:53:22.036Z,9.45
2023-02-28T00:56:27.314Z,9.00
2023-02-28T00:59:30.085Z,7.75
2023-02-28T01:02:32.751Z,8.85
2023-02-28T01:05:34.569Z,9.38
2023-02-28T01:08:38.998Z,9.38
2023-02-28T01:11:42.039Z,9.23
2023-02-28T01:14:44.523Z,9.40
2023-02-28T01:17:46.295Z,9.35
2023-02-28T01:20:48.353Z,10.32
2023-02-28T01:23:53.178Z,9.68
2023-02-28T01:26:55.681Z,10.57
2023-02-28T01:29:57.505Z,9.98
2023-02-28T01:32:59.343Z,10.95
2023-02-28T01:36:05.114Z,11.00
2023-02-28T01:39:10.935Z,10.57
2023-02-28T01:42:13.821Z,11.70
2023-02-28T01:45:24.624Z,11.50
2023-02-28T01:48:30.978Z,11.50
2023-02-28T01:51:40.602Z,11.30
2023-02-28T01:54:51.687Z,11.73
2023-02-28T01:57:56.263Z,11.93
2023-02-28T02:00:58.297Z,12.13
2023-02-28T02:04:02.973Z,12.13
2023-02-28T02:07:05.599Z,12.93
2023-02-28T02:10:14.202Z,12.55
2023-02-28T02:13:53.022Z,9.75
2023-02-28T02:17:06.452Z,12.15
2023-02-28T02:20:48.011Z,12.27
2023-02-28T02:24:22.716Z,12.23
2023-02-28T02:27:42.881Z,12.68
2023-02-28T02:31:10.999Z,11.82
2023-02-28T02:34:44.316Z,12.57
2023-02-28T02:37:53.642Z,13.18
2023-02-28T02:41:00.230Z,12.60
2023-02-28T02:44:08.416Z,12.43
2023-02-28T02:47:16.951Z,10.23
2023-02-28T02:50:25.563Z,12.60
2023-02-28T02:53:31.657Z,13.13
2023-02-28T02:56:37.130Z,11.98
2023-02-28T02:59:41.789Z,12.45
2023-02-28T03:02:47.381Z,13.00
2023-02-28T03:05:52.125Z,13.02
2023-02-28T03:08:55.161Z,13.20
2023-02-28T03:12:00.782Z,12.98
2023-02-28T03:15:14.816Z,12.93
2023-02-28T03:18:23.328Z,12.80
2023-02-28T03:21:31.935Z,13.80
2023-02-28T03:24:44.967Z,13.32
2023-02-28T03:27:57.171Z,13.32
2023-02-28T03:31:05.532Z,13.18
2023-02-28T03:34:10.946Z,14.38
2023-02-28T03:37:23.335Z,13.55
2023-02-28T03:40:31.103Z,14.52
2023-02-28T03:43:36.860Z,14.45
2023-02-28T03:46:46.911Z,13.50
2023-02-28T03:49:55.014Z,13.95
2023-02-28T03:53:04.406Z,13.57
2023-02-28T03:56:14.268Z,12.63
2023-02-28T03:59:21.412Z,14.00
2023-02-28T04:02:24.928Z,13.52
2023-02-28T04:05:29.671Z,14.18
2023-02-28T04:08:36.728Z,14.38
2023-02-28T04:11:40.628Z,13.93
2023-02-28T04:14:42.473Z,15.60
2023-02-28T04:17:44.918Z,13.68
2023-02-28T04:20:46.668Z,14.63
2023-02-28T04:23:50.893Z,13.88
2023-02-28T04:26:55.592Z,13.90
2023-02-28T04:29:57.351Z,14.77
2023-02-28T04:33:02.044Z,13.23
2023-02-28T04:36:08.588Z,14.75
2023-02-28T04:39:11.809Z,14.57
2023-02-28T04:42:16.389Z,13.57
2023-02-28T04:45:18.172Z,14.65
2023-02-28T04:48:22.309Z,14.65
2023-02-28T04:51:24.198Z,14.43
2023-02-28T04:54:28.034Z,14.05
2023-02-28T04:57:29.978Z,13.48
2023-02-28T05:00:33.139Z,15.57
2023-02-28T05:03:34.974Z,14.98
2023-02-28T05:06:37.043Z,14.65
2023-02-28T05:09:40.810Z,13.98
2023-02-28T05:12:43.892Z,15.38
2023-02-28T05:15:45.673Z,14.05
2023-02-28T05:18:48.246Z,14.32
2023-02-28T05:21:52.576Z,14.43
2023-02-28T05:24:59.269Z,14.50
2023-02-28T05:28:01.067Z,15.32
2023-02-28T05:31:05.558Z,14.35
2023-02-28T05:34:07.504Z,14.18
2023-02-28T05:37:14.159Z,14.57
2023-02-28T05:40:17.955Z,14.80
2023-02-28T05:43:21.498Z,13.90
2023-02-28T05:46:23.676Z,13.63
2023-02-28T05:49:25.648Z,14.50
2023-02-28T05:52:29.692Z,13.98
2023-02-28T05:55:32.894Z,13.75
2023-02-28T05:58:34.999Z,13.95
2023-02-28T06:01:39.003Z,14.45
2023-02-28T06:04:42.929Z,14.23
2023-02-28T06:07:45.505Z,15.32
2023-02-28T06:10:50.928Z,14.40
2023-02-28T06:13:54.602Z,14.07
2023-02-28T06:16:59.120Z,13.77
2023-02-28T06:20:01.040Z,14.50
2023-02-28T06:23:06.146Z,14.55
2023-02-28T06:26:09.269Z,14.38
2023-02-28T06:29:11.283Z,13.50
2023-02-28T06:32:13.246Z,14.45
2023-02-28T06:35:16.437Z,14.02
2023-02-28T06:38:18.914Z,14.40
2023-02-28T06:41:22.696Z,15.35
2023-02-28T06:44:26.054Z,15.98
2023-02-28T06:47:30.663Z,15.23
2023-02-28T06:50:32.640Z,14.13
2023-02-28T06:53:34.986Z,15.43
2023-02-28T06:56:39.436Z,15.75
2023-02-28T06:59:41.251Z,15.68
2023-02-28T07:02:43.210Z,14.88
2023-02-28T07:05:45.948Z,15.90
2023-02-28T07:08:47.738Z,15.43
2023-02-28T07:11:51.196Z,15.30
2023-02-28T07:14:53.215Z,15.23
2023-02-28T07:17:55.231Z,16.38
2023-02-28T07:20:57.186Z,14.80
2023-02-28T07:23:59.485Z,14.73
2023-02-28T07:27:03.960Z,14.13
2023-02-28T07:30:06.996Z,15.65
2023-02-28T07:33:12.073Z,16.17
2023-02-28T07:36:15.844Z,14.75
2023-02-28T07:39:17.725Z,15.55
2023-02-28T07:42:23.435Z,14.45
2023-02-28T07:45:25.498Z,15.88
2023-02-28T07:48:28.481Z,15.45
2023-02-28T07:51:31.233Z,15.88
2023-02-28T07:54:34.075Z,15.93
2023-02-28T07:57:37.512Z,14.60
2023-02-28T08:00:39.392Z,14.85
2023-02-28T08:03:42.271Z,14.23
2023-02-28T08:06:44.547Z,13.60
2023-02-28T08:09:46.627Z,14.60
2023-02-28T08:12:50.056Z,13.90
2023-02-28T08:15:52.338Z,14.77
2023-02-28T08:18:54.800Z,14.68
2023-02-28T08:21:56.985Z,14.15
2023-02-28T08:24:58.765Z,15.20
2023-02-28T08:28:02.987Z,14.80
2023-02-28T08:31:09.193Z,14.88
2023-02-28T08:34:13.433Z,14.23
2023-02-28T08:37:15.551Z,14.93
2023-02-28T08:40:18.180Z,13.10
2023-02-28T08:43:21.294Z,14.75
2023-02-28T08:46:25.433Z,15.43
2023-02-28T08:49:27.530Z,14.13
2023-02-28T08:52:31.265Z,14.48
2023-02-28T08:55:33.122Z,14.10
2023-02-28T08:58:39.772Z,14.52
2023-02-28T09:01:42.333Z,14.77
2023-02-28T09:04:44.103Z,13.60
2023-02-28T09:07:47.418Z,14.35
2023-02-28T09:10:50.913Z,13.48
2023-02-28T09:13:54.082Z,13.15
2023-02-28T09:16:56.156Z,13.30
2023-02-28T09:19:59.411Z,13.50
2023-02-28T09:23:02.330Z,13.77
2023-02-28T09:26:04.940Z,14.18
2023-02-28T09:29:10.365Z,13.98
2023-02-28T09:32:12.183Z,13.10
2023-02-28T09:35:14.071Z,12.50
2023-02-28T09:38:16.103Z,12.80
2023-02-28T09:41:20.742Z,13.98
2023-02-28T09:44:30.163Z,13.23
2023-02-28T09:47:36.495Z,14.57
2023-02-28T09:50:41.429Z,13.80
2023-02-28T09:53:45.776Z,14.00
2023-02-28T09:56:52.433Z,12.55
2023-02-28T10:00:07.780Z,13.20
2023-02-28T10:03:26.492Z,12.75
2023-02-28T10:06:34.701Z,12.05
2023-02-28T10:09:38.480Z,8.73
2023-02-28T10:12:45.362Z,11.93
2023-02-28T10:15:52.525Z,12.25
2023-02-28T10:19:02.402Z,11.63
2023-02-28T10:22:12.414Z,11.50
2023-02-28T10:25:19.613Z,12.15
2023-02-28T10:28:22.041Z,12.85
2023-02-28T10:31:30.026Z,11.65
2023-02-28T10:34:31.911Z,11.75
2023-02-28T10:37:34.010Z,12.02
2023-02-28T10:40:36.437Z,11.68
2023-02-28T10:43:39.934Z,11.57
2023-02-28T10:46:44.153Z,11.68
2023-02-28T10:49:50.027Z,11.20
2023-02-28T10:52:52.042Z,11.60
2023-02-28T10:56:03.848Z,12.07
2023-02-28T10:59:28.923Z,12.65
2023-02-28T11:02:36.974Z,13.00
2023-02-28T11:05:38.947Z,11.98
2023-02-28T11:08:47.711Z,11.02
2023-02-28T11:11:50.174Z,12.40
2023-02-28T11:14:56.107Z,11.70
2023-02-28T11:18:02.145Z,11.40
2023-02-28T11:21:05.119Z,12.00
2023-02-28T11:24:23.529Z,12.00
2023-02-28T11:27:27.982Z,12.32
2023-02-28T11:30:36.143Z,12.45
2023-02-28T11:33:45.843Z,10.85
2023-02-28T11:36:57.221Z,11.82
2023-02-28T11:39:58.997Z,12.25
2023-02-28T11:43:13.124Z,10.98
2023-02-28T11:46:27.055Z,12.80
2023-02-28T11:49:41.094Z,11.70
2023-02-28T11:52:50.078Z,12.27
2023-02-28T11:55:57.931Z,12.10
2023-02-28T11:59:24.070Z,11.45
2023-02-28T12:02:29.656Z,11.15
2023-02-28T12:05:43.125Z,11.63
2023-02-28T12:08:57.237Z,11.73
2023-02-28T12:12:08.353Z,11.50
2023-02-28T12:15:51.402Z,11.15
2023-02-28T12:19:16.004Z,11.27
2023-02-28T12:22:28.905Z,11.38
2023-02-28T12:25:48.410Z,12.15
2023-02-28T12:28:59.959Z,11.38
2023-02-28T12:32:07.483Z,10.65
2023-02-28T12:35:15.774Z,11.93
2023-02-28T12:38:26.760Z,12.20
2023-02-28T12:41:36.172Z,12.18
2023-02-28T12:44:45.474Z,12.80
2023-02-28T12:47:52.182Z,11.65
2023-02-28T12:50:55.301Z,12.60
2023-02-28T12:54:10.497Z,11.20
2023-02-28T12:57:19.939Z,11.75
2023-02-28T13:00:26.398Z,10.98
2023-02-28T13:03:45.955Z,11.15
2023-02-28T13:07:07.173Z,11.07
2023-02-28T13:10:11.769Z,9.77
2023-02-28T13:13:19.466Z,11.32
2023-02-28T13:16:23.880Z,11.25
2023-02-28T13:19:27.799Z,11.27
2023-02-28T13:22:41.082Z,10.65
2023-02-28T13:25:58.465Z,10.68
2023-02-28T13:29:02.473Z,11.43
2023-02-28T13:32:33.131Z,11.10
2023-02-28T13:35:45.393Z,11.32
2023-02-28T13:38:50.858Z,10.50
2023-02-28T13:41:56.653Z,10.40
2023-02-28T13:45:22.970Z,10.40
2023-02-28T13:48:30.937Z,10.13
2023-02-28T13:51:43.207Z,10.95
2023-02-28T13:55:02.807Z,11.00
2023-02-28T13:58:30.803Z,11.30
2023-02-28T14:01:52.815Z,11.77
2023-02-28T14:05:11.985Z,11.00
2023-02-28T14:08:18.547Z,8.95
2023-02-28T14:11:42.600Z,11.15
2023-02-28T14:14:58.030Z,10.55
2023-02-28T14:18:02.175Z,11.57
2023-02-28T14:21:13.841Z,11.93
2023-02-28T14:24:49.795Z,11.60
2023-02-28T14:28:02.076Z,11.90
2023-02-28T14:31:10.086Z,11.70
2023-02-28T14:34:27.147Z,12.93
2023-02-28T14:37:36.786Z,12.57
2023-02-28T14:40:40.352Z,13.43
2023-02-28T14:43:50.498Z,12.68
2023-02-28T14:46:56.096Z,12.77
2023-02-28T14:49:59.060Z,11.93
2023-02-28T14:53:03.566Z,13.27
2023-02-28T14:56:06.857Z,12.05
2023-02-28T14:59:33.069Z,12.30
2023-02-28T15:02:37.721Z,12.85
2023-02-28T15:05:39.759Z,12.52
2023-02-28T15:08:41.970Z,13.75
2023-02-28T15:11:48.372Z,12.65
2023-02-28T15:14:52.205Z,13.63
2023-02-28T15:17:59.922Z,13.52
2023-02-28T15:21:07.831Z,12.60
2023-02-28T15:24:15.532Z,12.63
2023-02-28T15:27:22.796Z,12.57
2023-02-28T15:30:28.339Z,13.23
2023-02-28T15:33:33.559Z,12.57
2023-02-28T15:36:38.823Z,12.90
2023-02-28T15:39:45.189Z,12.40
2023-02-28T15:43:00.922Z,13.23
2023-02-28T15:46:04.420Z,13.23
2023-02-28T15:49:20.216Z,13.45
2023-02-28T15:52:27.276Z,14.05
2023-02-28T15:55:29.581Z,14.05
2023-02-28T15:58:32.802Z,14.23
2023-02-28T16:01:36.060Z,13.25
2023-02-28T16:04:59.152Z,14.05
2023-02-28T16:08:03.130Z,13.75
2023-02-28T16:11:05.413Z,16.23
2023-02-28T16:14:15.425Z,15.20
2023-02-28T16:17:22.464Z,14.88
2023-02-28T16:20:27.538Z,14.20
2023-02-28T16:23:30.899Z,13.95
2023-02-28T16:26:33.554Z,14.55
2023-02-28T16:29:37.957Z,14.45
2023-02-28T16:32:43.056Z,16.17
2023-02-28T16:35:46.187Z,15.10
2023-02-28T16:38:49.558Z,16.73
2023-02-28T16:41:52.742Z,15.38
2023-02-28T16:44:58.992Z,17.23
2023-02-28T16:48:00.936Z,17.88
2023-02-28T16:51:04.702Z,15.85
2023-02-28T16:54:07.963Z,14.15
2023-02-28T16:57:19.427Z,15.60
2023-02-28T17:00:22.080Z,16.00
2023-02-28T17:03:33.041Z,15.23
2023-02-28T17:06:39.022Z,16.20
2023-02-28T17:09:44.508Z,15.63
2023-02-28T17:12:48.328Z,16.60
2023-02-28T17:15:54.148Z,15.63
2023-02-28T17:18:59.493Z,15.88
2023-02-28T17:22:03.954Z,15.20
2023-02-28T17:25:09.106Z,15.68
2023-02-28T17:28:12.625Z,14.90
2023-02-28T17:31:17.201Z,15.82
2023-02-28T17:34:19.697Z,16.20
2023-02-28T17:37:29.417Z,17.13
2023-02-28T17:40:32.994Z,15.38
2023-02-28T17:43:42.208Z,15.43
2023-02-28T17:49:47.228Z,15.52
2023-02-28T17:52:55.880Z,15.20
2023-02-28T17:55:58.438Z,14.90
2023-02-28T17:59:00.606Z,15.73
2023-02-28T18:02:05.111Z,15.55
2023-02-28T18:05:09.962Z,15.40
2023-02-28T18:08:18.649Z,13.88
2023-02-28T18:11:23.135Z,15.38
2023-02-28T18:14:26.690Z,16.65
2023-02-28T18:17:34.502Z,16.17
2023-02-28T18:20:37.385Z,15.98
2023-02-28T18:23:44.900Z,16.65
2023-02-28T18:26:49.554Z,25.98
2023-02-28T18:29:53.582Z,16.65
2023-02-28T18:32:56.335Z,16.02
2023-02-28T18:35:59.329Z,16.65
2023-02-28T18:39:03.595Z,16.27
2023-02-28T18:42:08.250Z,15.65
2023-02-28T18:45:12.003Z,15.63
2023-02-28T18:48:14.604Z,18.17
2023-02-28T18:51:23.099Z,16.83
2023-02-28T18:54:30.066Z,15.90
2023-02-28T18:57:32.968Z,15.90
2023-02-28T19:00:37.429Z,15.25
2023-02-28T19:03:40.000Z,15.85
2023-02-28T19:06:49.623Z,15.13
2023-02-28T19:09:55.055Z,18.40
2023-02-28T19:12:58.559Z,16.30
2023-02-28T19:16:08.044Z,15.63
2023-02-28T19:19:11.203Z,15.65
2023-02-28T19:22:13.790Z,15.40
2023-02-28T19:25:19.937Z,14.98
2023-02-28T19:28:22.592Z,15.48
2023-02-28T19:31:27.407Z,15.30
2023-02-28T19:34:30.190Z,14.95
2023-02-28T19:37:39.717Z,13.93
2023-02-28T19:40:44.151Z,14.77
2023-02-28T19:43:47.482Z,15.55
2023-02-28T19:46:51.397Z,15.07
2023-02-28T19:49:57.098Z,15.60
2023-02-28T19:53:00.712Z,15.07
2023-02-28T19:56:06.475Z,15.35
2023-02-28T19:59:21.024Z,14.82
2023-02-28T20:02:24.937Z,14.73
2023-02-28T20:05:28.218Z,14.57
2023-02-28T20:08:33.588Z,14.82
2023-02-28T20:11:38.781Z,14.55
2023-02-28T20:14:41.889Z,15.50
2023-02-28T20:17:45.610Z,14.48
2023-02-28T20:20:48.741Z,14.43
2023-02-28T20:23:53.508Z,14.55
2023-02-28T20:26:57.541Z,13.65
2023-02-28T20:30:00.485Z,14.05
2023-02-28T20:33:06.219Z,14.20
2023-02-28T20:36:08.803Z,13.77
2023-02-28T20:39:13.142Z,14.70
2023-02-28T20:42:17.461Z,14.80
2023-02-28T20:45:23.506Z,14.50
2023-02-28T20:48:26.513Z,14.52
2023-02-28T20:51:31.405Z,15.25
2023-02-28T20:54:36.254Z,14.27
2023-02-28T20:57:40.664Z,14.05
2023-02-28T21:00:43.533Z,14.63
2023-02-28T21:03:47.680Z,14.43
2023-02-28T21:06:49.867Z,14.15
2023-02-28T21:09:55.461Z,15.45
2023-02-28T21:13:00.038Z,14.18
2023-02-28T21:16:05.082Z,15.40
2023-02-28T21:19:07.432Z,14.40
2023-02-28T21:22:09.389Z,13.77
2023-02-28T21:25:12.411Z,13.40
2023-02-28T21:28:15.945Z,14.02
2023-02-28T21:31:20.389Z,13.93
2023-02-28T21:34:22.774Z,13.43
2023-02-28T21:37:24.651Z,14.80
2023-02-28T21:40:26.701Z,14.45
2023-02-28T21:43:29.834Z,14.73
2023-02-28T21:46:33.486Z,14.63
2023-02-28T21:49:36.145Z,13.07
2023-02-28T21:52:38.171Z,14.60
2023-02-28T21:55:41.280Z,14.35
2023-02-28T21:58:47.729Z,14.10
2023-02-28T22:01:50.995Z,14.65
2023-02-28T22:04:52.881Z,13.98
2023-02-28T22:07:55.954Z,13.50
2023-02-28T22:11:02.330Z,13.95
2023-02-28T22:14:06.796Z,13.20
2023-02-28T22:17:10.013Z,13.85
2023-02-28T22:20:12.285Z,13.70
2023-02-28T22:23:14.072Z,14.65
2023-02-28T22:26:20.723Z,14.73
2023-02-28T22:29:23.981Z,13.90
2023-02-28T22:32:26.122Z,14.30
2023-02-28T22:35:28.206Z,14.02
2023-02-28T22:38:29.969Z,14.52
2023-02-28T22:41:32.367Z,14.05
2023-02-28T22:44:37.681Z,15.05
2023-02-28T22:47:39.990Z,14.55
2023-02-28T22:50:41.968Z,14.93
2023-02-28T22:53:49.448Z,13.65
2023-02-28T22:56:51.257Z,15.00
2023-02-28T22:59:54.734Z,13.80
2023-02-28T23:02:57.411Z,14.85
2023-02-28T23:05:59.692Z,14.93
2023-02-28T23:09:04.398Z,14.10
2023-02-28T23:12:06.747Z,15.15
2023-02-28T23:15:13.434Z,14.55
2023-02-28T23:18:15.775Z,15.18
2023-02-28T23:21:17.511Z,14.52
2023-02-28T23:24:22.990Z,14.20
2023-02-28T23:27:24.768Z,15.43
2023-02-28T23:30:28.747Z,14.38
2023-02-28T23:33:31.136Z,15.05
2023-02-28T23:36:34.148Z,14.90
2023-02-28T23:39:36.365Z,14.55
2023-02-28T23:42:38.338Z,15.38
2023-02-28T23:45:55.402Z,14.80
2023-02-28T23:48:58.623Z,14.73
2023-02-28T23:52:00.651Z,15.10
2023-02-28T23:55:02.551Z,16.88
2023-02-28T23:58:06.433Z,15.80
